createdAt,value
2023-02-06T03:29:46.559Z,87.21
2023-02-06T03:32:24.203Z,86.68
2023-02-06T03:35:06.319Z,85.70
2023-02-06T03:37:34.730Z,85.18
2023-02-06T03:40:02.399Z,85.32
2023-02-06T06:47:12.614Z,79.52
2023-02-06T06:49:39.558Z,79.30
2023-02-06T06:52:13.424Z,78.03
2023-02-06T06:54:46.894Z,79.67
2023-02-06T06:57:13.846Z,78.42
2023-02-06T06:59:40.743Z,77.94
2023-02-06T07:02:07.862Z,77.78
2023-02-06T07:04:34.861Z,77.02
2023-02-06T07:07:01.833Z,77.00
2023-02-06T07:09:28.702Z,76.78
2023-02-06T07:11:55.692Z,76.46
2023-02-06T07:14:22.571Z,76.53
2023-02-06T07:16:49.381Z,75.63
2023-02-06T07:19:16.339Z,72.91
2023-02-06T07:21:43.214Z,72.19
2023-02-06T07:24:10.104Z,71.56
2023-02-06T07:26:37.022Z,70.04
2023-02-06T07:29:04.333Z,69.71
2023-02-06T07:31:31.256Z,69.00
2023-02-06T07:33:58.320Z,69.77
2023-02-06T07:36:25.332Z,69.14
2023-02-06T07:38:52.162Z,69.25
2023-02-06T07:41:19.036Z,69.30
2023-02-06T07:43:46.028Z,68.78
2023-02-06T07:46:13.058Z,70.54
2023-02-06T07:48:40.061Z,69.28
2023-02-06T07:51:08.652Z,68.55
2023-02-06T07:53:36.408Z,68.39
2023-02-06T07:56:10.324Z,69.89
2023-02-06T07:58:37.216Z,65.72
2023-02-06T08:01:05.598Z,66.10
2023-02-06T08:03:33.555Z,67.57
2023-02-06T08:06:00.916Z,67.26
2023-02-06T08:08:27.764Z,66.46
2023-02-06T08:10:54.631Z,64.88
2023-02-06T08:13:21.627Z,65.09
2023-02-06T08:15:48.653Z,64.62
2023-02-06T08:18:15.527Z,64.23
2023-02-06T08:20:42.390Z,64.41
2023-02-06T08:23:09.266Z,64.23
2023-02-06T08:25:36.431Z,63.82
2023-02-06T08:28:03.799Z,63.64
2023-02-06T08:30:32.483Z,63.76
2023-02-06T08:32:59.379Z,60.77
2023-02-06T08:35:26.455Z,61.61
2023-02-06T08:37:53.310Z,61.58
2023-02-06T08:40:21.337Z,60.67
2023-02-06T08:42:51.189Z,65.71
2023-02-06T08:45:18.593Z,65.75
2023-02-06T08:47:45.376Z,56.43
2023-02-06T08:50:13.387Z,58.82
2023-02-06T08:52:40.474Z,57.89
2023-02-06T08:55:08.209Z,60.37
2023-02-06T08:57:35.293Z,57.10
2023-02-06T09:00:02.434Z,57.80
2023-02-06T09:02:29.343Z,60.56
2023-02-06T09:04:56.228Z,59.73
2023-02-06T09:07:23.214Z,59.66
2023-02-06T09:09:50.094Z,59.00
2023-02-06T09:12:17.092Z,60.18
2023-02-06T09:14:44.611Z,58.14
2023-02-06T09:17:11.577Z,57.21
2023-02-06T09:19:38.463Z,57.98
2023-02-06T09:22:07.135Z,57.36
2023-02-06T09:24:34.205Z,57.71
2023-02-06T09:27:01.233Z,58.46
2023-02-06T09:29:29.641Z,56.62
2023-02-06T09:31:57.671Z,56.27
2023-02-06T09:34:26.122Z,55.33
2023-02-06T09:36:54.791Z,72.19
2023-02-06T09:39:21.703Z,62.45
2023-02-06T09:41:55.286Z,57.23
2023-02-06T09:44:28.389Z,56.49
2023-02-06T09:47:02.138Z,61.86
2023-02-06T09:49:58.718Z,54.16
2023-02-06T09:52:34.746Z,52.97
2023-02-06T09:55:29.862Z,54.15
2023-02-06T09:58:05.780Z,54.97
2023-02-06T10:00:47.923Z,54.20
2023-02-06T10:03:14.966Z,50.74
2023-02-06T10:06:00.658Z,50.24
2023-02-06T10:08:38.266Z,51.29
2023-02-06T10:11:16.205Z,49.79
2023-02-06T10:13:52.312Z,50.35
2023-02-06T10:16:46.019Z,48.95
2023-02-06T10:19:18.757Z,50.15
2023-02-06T10:21:52.841Z,50.11
2023-02-06T10:24:43.536Z,53.58
2023-02-06T10:27:13.431Z,54.31
2023-02-06T10:29:43.069Z,50.47
2023-02-06T10:32:09.819Z,50.63
2023-02-06T10:34:42.867Z,50.92
2023-02-06T10:37:49.732Z,53.32
2023-02-06T10:40:49.181Z,51.55
2023-02-06T10:43:34.222Z,51.63
2023-02-06T10:46:06.184Z,49.60
2023-02-06T10:48:44.588Z,50.04
2023-02-06T10:51:22.312Z,50.75
2023-02-06T10:53:53.397Z,53.38
2023-02-06T10:56:28.881Z,50.29
2023-02-06T10:59:04.818Z,49.22
2023-02-06T11:01:37.156Z,50.30
2023-02-06T11:04:06.109Z,50.90
2023-02-06T11:06:33.593Z,51.22
2023-02-06T11:09:00.753Z,49.93
2023-02-06T11:11:36.269Z,47.23
2023-02-06T11:14:24.933Z,45.23
2023-02-06T11:16:52.979Z,44.36
2023-02-06T11:19:48.709Z,45.93
2023-02-06T11:22:25.967Z,45.05
2023-02-06T11:25:08.296Z,45.67
2023-02-06T11:27:36.362Z,43.69
2023-02-06T11:30:25.734Z,44.63
2023-02-06T11:33:04.292Z,44.22
2023-02-06T11:35:38.546Z,48.24
2023-02-06T11:38:19.349Z,48.25
2023-02-06T11:40:55.313Z,47.96
2023-02-06T11:43:44.529Z,46.88
2023-02-06T11:46:11.414Z,46.30
2023-02-06T11:48:44.737Z,47.86
2023-02-06T11:51:14.040Z,47.89
2023-02-06T11:54:04.054Z,47.79
2023-02-06T11:56:31.991Z,48.35
2023-02-06T11:59:15.706Z,48.36
2023-02-06T12:01:46.240Z,47.72
2023-02-06T12:04:46.103Z,47.63
2023-02-06T12:07:37.150Z,49.60
2023-02-06T12:10:14.093Z,50.30
2023-02-06T12:12:45.860Z,50.14
2023-02-06T12:15:43.647Z,50.74
2023-02-06T12:18:19.865Z,50.09
2023-02-06T12:20:54.114Z,51.65
2023-02-06T12:23:31.670Z,51.56
2023-02-06T12:26:02.232Z,52.35
2023-02-06T12:28:32.034Z,53.16
2023-02-06T12:31:09.352Z,50.86
2023-02-06T12:33:59.122Z,50.07
2023-02-06T12:36:50.124Z,50.72
2023-02-06T12:39:23.839Z,50.53
2023-02-06T12:42:08.651Z,50.19
2023-02-06T12:45:22.981Z,49.64
2023-02-06T12:47:57.852Z,50.61
2023-02-06T12:50:33.515Z,50.87
2023-02-06T12:53:35.493Z,53.98
2023-02-06T12:56:14.793Z,51.25
2023-02-06T12:58:44.411Z,52.25
2023-02-06T13:01:32.256Z,50.43
2023-02-06T13:04:05.881Z,49.97
2023-02-06T13:07:08.117Z,50.12
2023-02-06T13:09:41.480Z,50.08
2023-02-06T13:12:21.556Z,49.95
2023-02-06T13:14:50.502Z,49.47
2023-02-06T13:17:24.770Z,50.76
2023-02-06T13:20:01.276Z,51.38
2023-02-06T13:22:44.893Z,49.66
2023-02-06T13:25:30.133Z,50.37
2023-02-06T13:28:02.088Z,48.53
2023-02-06T13:30:28.992Z,48.32
2023-02-06T13:33:09.303Z,48.13
2023-02-06T13:35:57.958Z,50.57
2023-02-06T13:38:35.858Z,48.34
2023-02-06T13:41:15.005Z,48.73
2023-02-06T13:43:55.601Z,48.41
2023-02-06T13:46:33.104Z,45.88
2023-02-06T13:49:14.984Z,45.56
2023-02-06T13:52:05.874Z,45.01
2023-02-06T13:54:53.807Z,45.24
2023-02-06T13:57:41.359Z,46.11
2023-02-06T14:00:20.521Z,46.57
2023-02-06T14:02:51.897Z,47.12
2023-02-06T14:06:05.475Z,47.83
2023-02-06T14:09:02.663Z,46.58
2023-02-06T14:12:15.817Z,47.11
2023-02-06T14:15:13.289Z,46.96
2023-02-06T14:18:00.790Z,45.82
2023-02-06T14:20:41.664Z,45.36
2023-02-06T14:23:34.794Z,45.48
2023-02-06T14:26:23.293Z,46.29
2023-02-06T14:29:19.179Z,47.15
2023-02-06T14:31:49.023Z,48.05
2023-02-06T14:34:22.042Z,48.04
2023-02-06T14:37:16.730Z,48.82
2023-02-06T14:39:51.105Z,50.38
2023-02-06T14:42:39.244Z,50.15
2023-02-06T14:45:24.786Z,51.53
2023-02-06T14:47:53.393Z,51.38
2023-02-06T14:50:26.847Z,51.66
2023-02-06T14:53:31.355Z,51.98
2023-02-06T14:56:23.946Z,52.37
2023-02-06T14:58:51.568Z,52.90
2023-02-06T15:01:18.375Z,53.09
2023-02-06T15:03:46.950Z,54.38
2023-02-06T15:06:32.079Z,54.42
2023-02-06T15:08:59.050Z,54.58
2023-02-06T15:11:35.310Z,54.53
2023-02-06T15:14:18.942Z,55.54
2023-02-06T15:16:48.065Z,56.16
2023-02-06T15:19:21.692Z,57.47
2023-02-06T15:21:50.241Z,58.08
2023-02-06T15:24:22.988Z,56.92
2023-02-06T15:27:03.102Z,57.89
2023-02-06T15:29:30.161Z,58.80
2023-02-06T15:32:03.381Z,58.69
2023-02-06T15:34:30.438Z,60.14
2023-02-06T15:36:57.237Z,60.94
2023-02-06T15:39:25.228Z,62.12
2023-02-06T15:41:53.200Z,62.65
2023-02-06T15:44:24.479Z,63.41
2023-02-06T15:46:52.763Z,63.93
2023-02-06T15:49:48.172Z,64.26
2023-02-06T15:52:35.985Z,65.36
2023-02-06T15:55:04.971Z,65.56
2023-02-06T15:57:35.559Z,65.58
2023-02-06T16:00:09.252Z,66.37
2023-02-06T16:02:40.787Z,66.98
2023-02-06T16:05:19.008Z,67.47
2023-02-06T16:07:48.447Z,67.69
2023-02-06T16:10:23.553Z,67.41
2023-02-06T16:12:51.748Z,67.85
2023-02-06T16:15:35.521Z,67.93
2023-02-06T16:18:19.375Z,67.84
2023-02-06T16:20:46.904Z,67.15
2023-02-06T16:23:24.538Z,66.66
2023-02-06T16:26:07.541Z,66.48
2023-02-06T16:28:46.072Z,66.57
2023-02-06T16:31:17.148Z,65.97
2023-02-06T16:33:47.980Z,64.81
2023-02-06T16:36:17.476Z,64.71
2023-02-06T16:38:54.042Z,64.36
2023-02-06T16:41:38.305Z,64.76
2023-02-06T16:44:15.861Z,64.51
2023-02-06T16:46:43.647Z,64.85
2023-02-06T16:49:18.347Z,64.55
2023-02-06T16:51:46.704Z,64.30
2023-02-06T16:54:26.449Z,64.78
2023-02-06T16:56:55.343Z,63.40
2023-02-06T16:59:22.526Z,63.43
2023-02-06T17:01:49.535Z,63.18
2023-02-06T17:04:16.417Z,61.49
2023-02-06T17:06:43.425Z,59.15
2023-02-06T17:09:14.104Z,58.47
2023-02-06T17:11:41.068Z,59.76
2023-02-06T17:14:07.989Z,58.79
2023-02-06T17:16:36.161Z,59.17
2023-02-06T17:19:02.983Z,58.45
2023-02-06T17:21:32.872Z,58.73
2023-02-06T17:24:00.138Z,57.87
2023-02-06T17:26:27.100Z,58.23
2023-02-06T17:28:54.043Z,58.37
2023-02-06T17:31:21.969Z,56.74
2023-02-06T17:33:49.606Z,57.00
2023-02-06T17:36:29.628Z,56.52
2023-02-06T17:38:59.059Z,55.87
2023-02-06T17:41:27.515Z,56.13
2023-02-06T17:43:54.343Z,56.91
2023-02-06T17:46:21.273Z,55.99
2023-02-06T17:48:48.511Z,56.32
2023-02-06T17:51:15.456Z,55.90
2023-02-06T17:53:42.318Z,55.85
2023-02-06T17:56:13.189Z,56.51
2023-02-06T17:58:41.452Z,57.21
2023-02-06T18:01:13.048Z,57.48
2023-02-06T18:03:40.988Z,57.74
2023-02-06T18:06:08.487Z,57.45
2023-02-06T18:08:35.603Z,57.74
2023-02-06T18:11:11.710Z,58.97
2023-02-06T18:13:40.519Z,58.04
2023-02-06T18:16:08.659Z,57.94
2023-02-06T18:18:35.648Z,58.16
2023-02-06T18:21:02.564Z,58.64
2023-02-06T18:23:29.481Z,59.09
2023-02-06T18:26:01.692Z,59.47
2023-02-06T18:28:28.927Z,59.89
2023-02-06T18:30:55.889Z,59.49
2023-02-06T18:33:22.874Z,59.62
2023-02-06T18:35:52.406Z,59.82
2023-02-06T18:38:19.277Z,60.47
2023-02-06T18:40:46.907Z,59.34
2023-02-06T18:43:15.067Z,58.92
2023-02-06T18:45:43.798Z,57.71
2023-02-06T18:48:12.737Z,58.15
2023-02-06T18:50:42.702Z,58.51
2023-02-06T18:53:09.889Z,58.44
2023-02-06T18:55:37.961Z,57.12
2023-02-06T18:58:06.245Z,57.07
2023-02-06T19:00:36.011Z,57.80
2023-02-06T19:03:03.469Z,59.04
2023-02-06T19:05:35.081Z,58.00
2023-02-06T19:08:01.983Z,57.54
2023-02-06T19:10:29.451Z,58.01
2023-02-06T19:12:56.331Z,58.07
2023-02-06T19:15:23.178Z,57.86
2023-02-06T19:17:50.863Z,58.15
2023-02-06T19:20:18.953Z,58.88
2023-02-06T19:22:45.858Z,59.72
2023-02-06T19:25:14.629Z,60.17
2023-02-06T19:27:41.895Z,60.46
2023-02-06T19:30:09.602Z,61.02
2023-02-06T19:32:36.769Z,60.51
2023-02-06T19:35:04.136Z,61.32
2023-02-06T19:37:31.346Z,60.34
2023-02-06T19:39:58.294Z,61.23
2023-02-06T19:42:25.200Z,60.44
2023-02-06T19:44:56.627Z,61.66
2023-02-06T19:47:23.517Z,60.75
2023-02-06T19:49:52.652Z,58.91
2023-02-06T19:52:20.375Z,57.89
2023-02-06T19:54:47.978Z,58.04
2023-02-06T19:57:16.168Z,59.38
2023-02-06T19:59:43.178Z,58.00
2023-02-06T20:02:14.429Z,57.85
2023-02-06T20:04:42.142Z,58.88
2023-02-06T20:07:09.038Z,58.13
2023-02-06T20:09:41.191Z,58.52
2023-02-06T20:12:10.420Z,58.95
2023-02-06T20:14:37.298Z,57.80
2023-02-06T20:17:04.723Z,57.97
2023-02-06T20:19:32.290Z,58.55
2023-02-06T20:22:00.259Z,58.41
2023-02-06T20:24:29.403Z,58.88
2023-02-06T20:26:59.149Z,58.65
2023-02-06T20:29:38.050Z,59.06
2023-02-06T20:32:06.365Z,60.07
2023-02-06T20:34:33.897Z,60.26
2023-02-06T20:37:01.189Z,60.57
2023-02-06T20:39:28.742Z,60.36
2023-02-06T20:41:55.721Z,61.31
2023-02-06T20:44:23.036Z,61.97
2023-02-06T20:46:50.013Z,62.14
2023-02-06T20:49:23.210Z,62.39
2023-02-06T20:51:50.597Z,63.39
2023-02-06T20:54:19.409Z,63.64
2023-02-06T20:56:46.464Z,64.44
2023-02-06T20:59:15.903Z,64.38
2023-02-06T21:01:43.150Z,64.97
2023-02-06T21:04:12.254Z,64.98
2023-02-06T21:06:40.483Z,66.14
2023-02-06T21:09:08.881Z,66.37
2023-02-06T21:11:40.942Z,66.37
2023-02-06T21:14:08.606Z,67.23
2023-02-06T21:16:37.740Z,66.71
2023-02-06T21:19:09.812Z,67.05
2023-02-06T21:21:37.840Z,66.55
2023-02-06T21:24:05.223Z,66.29
2023-02-06T21:26:33.036Z,67.20
2023-02-06T21:29:02.570Z,67.77
2023-02-06T21:31:36.923Z,67.97
2023-02-06T21:34:11.947Z,68.30
2023-02-06T21:36:39.775Z,68.58
2023-02-06T21:39:07.407Z,69.03
2023-02-06T21:41:34.759Z,69.19
2023-02-06T21:44:01.641Z,69.64
2023-02-06T21:46:31.145Z,69.89
2023-02-06T21:48:58.057Z,70.30
2023-02-06T21:51:25.412Z,70.82
2023-02-06T21:53:52.313Z,70.87
2023-02-06T21:56:25.130Z,71.46
2023-02-06T21:58:52.256Z,71.83
2023-02-06T22:01:28.722Z,71.88
2023-02-06T22:03:58.225Z,72.06
2023-02-06T22:06:25.826Z,72.12
2023-02-06T22:08:55.923Z,72.71
2023-02-06T22:11:22.785Z,72.76
2023-02-06T22:13:50.751Z,73.05
2023-02-06T22:16:20.929Z,73.59
2023-02-06T22:18:47.866Z,73.21
2023-02-06T22:21:18.440Z,73.13
2023-02-06T22:23:46.439Z,72.78
2023-02-06T22:26:16.120Z,73.06
2023-02-06T22:28:44.264Z,73.76
2023-02-06T22:31:14.177Z,73.75
2023-02-06T22:33:41.259Z,73.23
2023-02-06T22:36:10.950Z,72.94
2023-02-06T22:38:38.722Z,73.10
2023-02-06T22:41:07.935Z,73.12
2023-02-06T22:43:37.362Z,72.85
2023-02-06T22:46:05.865Z,72.84
2023-02-06T22:48:32.973Z,72.44
2023-02-06T22:51:08.410Z,72.64
2023-02-06T22:53:37.056Z,72.94
2023-02-06T22:56:29.359Z,72.50
2023-02-06T22:59:00.407Z,73.08
2023-02-06T23:01:31.079Z,73.63
2023-02-06T23:03:58.301Z,73.71
2023-02-06T23:06:27.056Z,74.30
2023-02-06T23:08:55.514Z,73.72
2023-02-06T23:11:23.433Z,73.91
